createdAt,value
2019-04-01T00:01:07.542Z,6.85
2019-04-01T00:03:32.729Z,6.10
2019-04-01T00:05:58.899Z,4.97
2019-04-01T00:08:25.061Z,4.92
2019-04-01T00:10:51.213Z,4.35
2019-04-01T00:13:17.373Z,5.12
2019-04-01T00:15:43.583Z,4.50
2019-04-01T00:18:09.741Z,4.62
2019-04-01T00:20:35.897Z,4.10
2019-04-01T00:23:02.230Z,4.67
2019-04-01T00:25:28.631Z,4.12
2019-04-01T00:27:54.790Z,4.67
2019-04-01T00:30:20.948Z,3.80
2019-04-01T00:32:47.100Z,3.90
2019-04-01T00:35:13.343Z,3.80
2019-04-01T00:37:39.516Z,3.85
2019-04-01T00:40:05.672Z,3.85
2019-04-01T00:42:31.829Z,3.45
2019-04-01T00:44:58.019Z,3.75
2019-04-01T00:47:24.195Z,4.20
2019-04-01T00:49:50.352Z,3.70
2019-04-01T00:52:16.520Z,3.37
2019-04-01T00:54:42.766Z,3.47
2019-04-01T00:57:08.921Z,3.37
2019-04-01T00:59:35.082Z,3.90
2019-04-01T01:02:01.232Z,3.47
2019-04-01T01:04:27.476Z,4.10
2019-04-01T01:06:53.624Z,3.70
2019-04-01T01:09:19.840Z,3.02
2019-04-01T01:11:45.963Z,3.52
2019-04-01T01:14:12.168Z,3.27
2019-04-01T01:16:38.328Z,3.40
2019-04-01T01:19:04.489Z,3.83
2019-04-01T01:21:30.649Z,3.58
2019-04-01T01:23:56.813Z,3.50
2019-04-01T01:26:23.017Z,3.20
2019-04-01T01:28:49.116Z,3.52
2019-04-01T01:31:15.297Z,3.77
2019-04-01T01:33:41.459Z,3.62
2019-04-01T01:36:07.624Z,3.05
2019-04-01T01:38:33.780Z,3.00
2019-04-01T01:40:59.953Z,3.00
2019-04-01T01:43:26.112Z,3.00
2019-04-01T01:45:52.332Z,3.22
2019-04-01T01:48:18.494Z,2.87
2019-04-01T01:50:44.652Z,2.95
2019-04-01T01:53:10.815Z,2.87
2019-04-01T01:55:37.031Z,2.98
2019-04-01T01:58:03.199Z,2.62
2019-04-01T02:00:29.363Z,3.00
2019-04-01T02:02:55.519Z,2.62
2019-04-01T02:05:21.778Z,2.80
2019-04-01T02:07:47.923Z,2.95
2019-04-01T02:10:14.082Z,2.72
2019-04-01T02:12:40.246Z,2.90
2019-04-01T02:15:06.470Z,2.75
2019-04-01T02:17:32.628Z,3.27
2019-04-01T02:19:58.786Z,2.72
2019-04-01T02:22:24.948Z,3.27
2019-04-01T02:24:51.174Z,3.20
2019-04-01T02:27:17.327Z,3.10
2019-04-01T02:29:43.490Z,2.52
2019-04-01T02:32:09.646Z,2.75
2019-04-01T02:34:35.814Z,2.72
2019-04-01T02:37:01.972Z,2.58
2019-04-01T02:39:28.133Z,2.80
2019-04-01T02:41:54.279Z,2.75
2019-04-01T02:44:20.530Z,2.58
2019-04-01T02:46:46.683Z,2.95
2019-04-01T02:49:12.830Z,2.85
2019-04-01T02:51:38.990Z,2.45
2019-04-01T02:54:05.218Z,2.80
2019-04-01T02:56:31.379Z,3.02
2019-04-01T02:58:57.543Z,2.98
2019-04-01T03:01:23.698Z,2.42
2019-04-01T03:03:49.855Z,3.00
2019-04-01T03:06:16.024Z,2.98
2019-04-01T03:08:42.167Z,2.87
2019-04-01T03:11:10.731Z,2.40
2019-04-01T03:13:36.204Z,3.10
2019-04-01T03:16:02.363Z,2.30
2019-04-01T03:18:28.530Z,2.80
2019-04-01T03:20:54.681Z,2.92
2019-04-01T03:23:20.840Z,2.45
2019-04-01T03:25:47.020Z,2.22
2019-04-01T03:28:13.166Z,2.55
2019-04-01T03:30:39.360Z,2.22
2019-04-01T03:33:05.509Z,2.25
2019-04-01T03:35:31.757Z,2.55
2019-04-01T03:37:57.916Z,2.35
2019-04-01T03:40:24.065Z,2.67
2019-04-01T03:42:50.238Z,2.27
2019-04-01T03:45:16.467Z,2.35
2019-04-01T03:47:42.607Z,2.45
2019-04-01T03:50:08.770Z,2.35
2019-04-01T03:52:34.914Z,2.12
2019-04-01T03:55:01.176Z,2.62
2019-04-01T03:57:27.331Z,2.37
2019-04-01T03:59:53.492Z,2.60
2019-04-01T04:02:19.654Z,2.30
2019-04-01T04:04:45.867Z,2.10
2019-04-01T04:07:12.037Z,2.50
2019-04-01T04:09:38.189Z,2.35
2019-04-01T04:12:04.358Z,2.30
2019-04-01T04:14:30.603Z,2.40
2019-04-01T04:16:56.746Z,2.60
2019-04-01T04:19:22.909Z,2.42
2019-04-01T04:21:49.080Z,2.55
2019-04-01T04:24:15.281Z,2.17
2019-04-01T04:26:41.476Z,2.40
2019-04-01T04:29:07.625Z,2.10
2019-04-01T04:31:33.788Z,2.12
2019-04-01T04:34:00.024Z,2.37
2019-04-01T04:36:26.175Z,2.40
2019-04-01T04:38:52.338Z,2.40
2019-04-01T04:41:18.496Z,37.33
2019-04-01T04:43:44.774Z,25.52
2019-04-01T04:46:10.938Z,4.60
2019-04-01T04:48:37.095Z,2.87
2019-04-01T04:51:03.264Z,2.65
2019-04-01T04:53:29.421Z,2.55
2019-04-01T04:55:55.604Z,2.42
2019-04-01T04:58:21.730Z,2.70
2019-04-01T05:00:47.883Z,2.20
2019-04-01T05:03:14.046Z,2.25
2019-04-01T05:05:40.204Z,2.50
2019-04-01T05:08:06.364Z,2.27
2019-04-01T05:10:32.511Z,2.55
2019-04-01T05:12:58.673Z,2.25
2019-04-01T05:15:24.872Z,2.17
2019-04-01T05:17:51.056Z,2.00
2019-04-01T05:20:17.205Z,2.22
2019-04-01T05:22:43.366Z,2.15
2019-04-01T05:25:09.611Z,2.12
2019-04-01T05:27:35.760Z,2.62
2019-04-01T05:30:01.923Z,2.22
2019-04-01T05:32:28.071Z,3.05
2019-04-01T05:34:54.327Z,2.50
2019-04-01T05:37:20.555Z,2.33
2019-04-01T05:39:46.699Z,2.27
2019-04-01T05:42:12.898Z,2.30
2019-04-01T05:44:39.108Z,2.62
2019-04-01T05:47:05.277Z,2.80
2019-04-01T05:49:31.433Z,3.67
2019-04-01T05:51:57.599Z,3.37
2019-04-01T05:54:23.855Z,3.62
2019-04-01T05:56:50.005Z,2.80
2019-04-01T05:59:16.166Z,3.12
2019-04-01T06:01:42.312Z,2.70
2019-04-01T06:04:08.572Z,3.60
2019-04-01T06:06:34.735Z,3.37
2019-04-01T06:09:00.885Z,3.17
2019-04-01T06:11:27.053Z,2.92
2019-04-01T06:13:53.248Z,2.62
2019-04-01T06:16:19.417Z,3.37
2019-04-01T06:18:45.569Z,3.17
2019-04-01T06:21:11.728Z,2.95
2019-04-01T06:23:37.895Z,2.33
2019-04-01T06:26:04.056Z,3.67
2019-04-01T06:28:30.259Z,3.02
2019-04-01T06:30:56.399Z,2.72
2019-04-01T06:33:22.601Z,2.77
2019-04-01T06:35:48.764Z,2.50
2019-04-01T06:38:14.916Z,2.75
2019-04-01T06:40:41.080Z,2.55
2019-04-01T06:43:07.224Z,2.40
2019-04-01T06:45:33.396Z,2.50
2019-04-01T06:47:59.554Z,2.47
2019-04-01T06:50:25.725Z,2.58
2019-04-01T06:52:51.890Z,2.12
2019-04-01T06:55:18.049Z,2.72
2019-04-01T06:57:44.214Z,3.27
2019-04-01T07:00:10.381Z,2.22
2019-04-01T07:02:36.533Z,2.37
2019-04-01T07:05:02.764Z,2.50
2019-04-01T07:07:28.925Z,2.25
2019-04-01T07:09:55.088Z,2.37
2019-04-01T07:12:21.260Z,2.50
2019-04-01T07:14:47.450Z,2.70
2019-04-01T07:17:13.614Z,2.37
2019-04-01T07:19:39.760Z,2.30
2019-04-01T07:22:05.919Z,2.35
2019-04-01T07:24:32.083Z,2.05
2019-04-01T07:26:58.242Z,2.45
2019-04-01T07:29:24.409Z,2.42
2019-04-01T07:31:50.564Z,2.08
2019-04-01T07:34:16.800Z,2.47
2019-04-01T07:36:42.955Z,2.25
2019-04-01T07:39:09.129Z,2.27
2019-04-01T07:41:35.286Z,3.00
2019-04-01T07:44:01.489Z,1.98
2019-04-01T07:46:27.644Z,2.60
2019-04-01T07:48:53.806Z,2.27
2019-04-01T07:51:20.080Z,2.00
2019-04-01T07:53:46.254Z,2.17
2019-04-01T07:56:12.410Z,2.00
2019-04-01T07:58:38.577Z,1.98
2019-04-01T08:01:04.726Z,1.95
2019-04-01T08:03:30.937Z,2.10
2019-04-01T08:05:57.095Z,2.25
2019-04-01T08:08:23.257Z,1.95
2019-04-01T08:10:49.451Z,1.92
2019-04-01T08:13:17.667Z,1.85
2019-04-01T08:15:43.836Z,2.42
2019-04-01T08:18:10.002Z,2.30
2019-04-01T08:20:36.174Z,2.17
2019-04-01T08:23:02.411Z,2.25
2019-04-01T08:25:28.564Z,2.08
2019-04-01T08:27:54.719Z,2.25
2019-04-01T08:30:20.876Z,1.90
2019-04-01T08:32:47.059Z,1.32
2019-04-01T08:35:13.217Z,1.70
2019-04-01T08:37:40.529Z,2.02
2019-04-01T08:40:07.013Z,2.08
2019-04-01T08:42:33.171Z,1.80
2019-04-01T08:44:59.332Z,1.90
2019-04-01T08:47:25.488Z,1.82
2019-04-01T08:49:51.636Z,1.92
2019-04-01T08:52:17.791Z,2.08
2019-04-01T08:54:44.007Z,1.92
2019-04-01T08:57:10.165Z,1.92
2019-04-01T08:59:36.336Z,1.55
2019-04-01T09:02:16.789Z,1.87
2019-04-01T09:04:30.429Z,2.15
2019-04-01T09:06:56.598Z,1.72
2019-04-01T09:09:22.744Z,1.67
2019-04-01T09:11:48.908Z,1.70
2019-04-01T09:14:15.172Z,1.60
2019-04-01T09:16:41.327Z,1.65
2019-04-01T09:19:07.485Z,1.98
2019-04-01T09:21:33.640Z,2.00
2019-04-01T09:23:59.887Z,1.80
2019-04-01T09:26:26.061Z,1.57
2019-04-01T09:28:52.216Z,1.62
2019-04-01T09:31:18.377Z,1.90
2019-04-01T09:33:44.569Z,1.80
2019-04-01T09:36:10.816Z,1.80
2019-04-01T09:38:36.959Z,1.62
2019-04-01T09:41:03.116Z,1.50
2019-04-01T09:43:29.309Z,1.70
2019-04-01T09:45:55.456Z,1.47
2019-04-01T09:48:23.674Z,1.40
2019-04-01T09:50:49.511Z,1.65
2019-04-01T09:53:15.765Z,1.65
2019-04-01T09:55:41.927Z,1.60
2019-04-01T09:58:08.083Z,1.40
2019-04-01T10:00:34.244Z,1.82
2019-04-01T10:03:00.443Z,1.77
2019-04-01T10:05:26.603Z,1.25
2019-04-01T10:07:52.782Z,1.75
2019-04-01T10:10:18.933Z,1.70
2019-04-01T10:12:45.108Z,1.20
2019-04-01T10:15:11.268Z,1.40
2019-04-01T10:17:37.428Z,1.75
2019-04-01T10:20:03.592Z,1.62
2019-04-01T10:22:29.758Z,1.65
2019-04-01T10:24:55.905Z,1.70
2019-04-01T10:27:22.064Z,1.47
2019-04-01T10:29:48.284Z,1.45
2019-04-01T10:32:14.452Z,1.30
2019-04-01T10:34:40.636Z,1.42
2019-04-01T10:37:06.796Z,1.12
2019-04-01T10:39:32.963Z,1.52
2019-04-01T10:41:59.119Z,1.27
2019-04-01T10:44:25.350Z,1.25
2019-04-01T10:46:51.556Z,1.37
2019-04-01T10:49:17.816Z,1.40
2019-04-01T10:51:44.016Z,1.30
2019-04-01T10:54:10.153Z,1.30
2019-04-01T10:56:36.448Z,1.30
2019-04-01T10:59:02.654Z,1.20
2019-04-01T11:01:28.888Z,1.25
2019-04-01T11:03:55.137Z,1.40
2019-04-01T11:06:21.349Z,1.47
2019-04-01T11:08:47.543Z,1.30
2019-04-01T11:11:13.670Z,1.25
2019-04-01T11:13:39.897Z,1.35
2019-04-01T11:16:06.056Z,1.30
2019-04-01T11:18:32.226Z,1.20
2019-04-01T11:20:58.387Z,1.20
2019-04-01T11:23:24.611Z,1.15
2019-04-01T11:25:50.779Z,1.22
2019-04-01T11:28:16.928Z,1.10
2019-04-01T11:30:43.131Z,1.17
2019-04-01T11:33:09.376Z,1.17
2019-04-01T11:35:35.627Z,1.02
2019-04-01T11:38:01.923Z,1.27
2019-04-01T11:40:28.086Z,1.72
2019-04-01T11:42:54.362Z,1.20
2019-04-01T11:45:20.501Z,1.17
2019-04-01T11:47:46.670Z,1.27
2019-04-01T11:50:12.842Z,1.00
2019-04-01T11:52:39.042Z,1.35
2019-04-01T11:55:06.636Z,1.12
2019-04-01T11:57:33.131Z,1.17
2019-04-01T11:59:59.329Z,1.85
2019-04-01T12:02:25.485Z,1.22
2019-04-01T12:04:52.651Z,1.05
2019-04-01T12:07:18.889Z,1.20
2019-04-01T12:09:45.065Z,1.15
2019-04-01T12:12:22.612Z,1.10
2019-04-01T12:14:39.089Z,1.15
2019-04-01T12:17:05.284Z,0.95
2019-04-01T12:19:31.450Z,1.37
2019-04-01T12:21:57.602Z,0.90
2019-04-01T12:24:23.826Z,1.30
2019-04-01T12:26:49.996Z,1.20
2019-04-01T12:29:16.155Z,1.00
2019-04-01T12:31:42.317Z,0.90
2019-04-01T12:34:08.511Z,1.02
2019-04-01T12:36:34.670Z,0.90
2019-04-01T12:39:00.825Z,0.90
2019-04-01T12:41:26.999Z,1.00
2019-04-01T12:43:53.250Z,1.32
2019-04-01T12:46:19.410Z,1.10
2019-04-01T12:48:45.587Z,1.05
2019-04-01T12:51:11.744Z,1.52
2019-04-01T12:53:37.959Z,1.05
2019-04-01T12:56:04.122Z,1.20
2019-04-01T12:58:30.301Z,1.07
2019-04-01T13:00:56.448Z,1.02
2019-04-01T13:03:22.676Z,0.80
2019-04-01T13:05:48.840Z,0.98
2019-04-01T13:08:14.992Z,1.07
2019-04-01T13:10:41.163Z,1.10
2019-04-01T13:13:07.360Z,0.80
2019-04-01T13:15:33.544Z,1.07
2019-04-01T13:17:59.690Z,1.10
2019-04-01T13:20:37.113Z,1.12
2019-04-01T13:22:53.736Z,1.00
2019-04-01T13:25:19.906Z,1.00
2019-04-01T13:27:46.066Z,0.93
2019-04-01T13:30:12.233Z,0.78
2019-04-01T13:32:38.466Z,1.10
2019-04-01T13:35:04.612Z,1.30
2019-04-01T13:37:30.777Z,1.40
2019-04-01T13:39:56.919Z,0.88
2019-04-01T13:42:24.943Z,1.00
2019-04-01T13:44:51.511Z,0.80
2019-04-01T13:47:17.989Z,0.90
2019-04-01T13:49:44.143Z,0.70
2019-04-01T13:52:10.332Z,1.00
2019-04-01T13:54:36.505Z,0.90
2019-04-01T13:57:02.660Z,1.05
2019-04-01T13:59:28.816Z,1.22
2019-04-01T14:01:56.376Z,1.20
2019-04-01T14:04:22.861Z,0.90
2019-04-01T14:06:49.020Z,0.95
2019-04-01T14:09:15.177Z,0.98
2019-04-01T14:11:41.417Z,0.90
2019-04-01T14:14:07.597Z,0.90
2019-04-01T14:16:33.754Z,0.95
2019-04-01T14:18:59.919Z,0.80
2019-04-01T14:21:26.068Z,0.98
2019-04-01T14:23:52.236Z,0.70
2019-04-01T14:26:18.390Z,1.00
2019-04-01T14:28:44.559Z,1.12
2019-04-01T14:31:10.722Z,0.93
2019-04-01T14:33:36.928Z,1.10
2019-04-01T14:36:04.666Z,0.80
2019-04-01T14:38:31.130Z,0.70
2019-04-01T14:40:58.203Z,0.70
2019-04-01T14:43:24.551Z,0.88
2019-04-01T14:45:50.695Z,0.80
2019-04-01T14:48:16.852Z,1.00
2019-04-01T14:50:42.999Z,1.00
2019-04-01T14:53:09.996Z,1.00
2019-04-01T14:55:36.517Z,0.82
2019-04-01T14:58:02.671Z,0.80
2019-04-01T15:00:28.847Z,0.70
2019-04-01T15:02:55.082Z,1.00
2019-04-01T15:05:21.273Z,0.70
2019-04-01T15:07:47.394Z,0.68
2019-04-01T15:10:14.336Z,0.70
2019-04-01T15:12:41.405Z,0.50
2019-04-01T15:15:07.572Z,0.88
2019-04-01T15:17:36.770Z,0.80
2019-04-01T15:20:01.618Z,0.82
2019-04-01T15:22:27.799Z,0.80
2019-04-01T15:24:53.952Z,0.88
2019-04-01T15:27:22.541Z,0.78
2019-04-01T15:29:47.997Z,0.75
2019-04-01T15:32:14.251Z,1.00
2019-04-01T15:34:40.404Z,0.80
2019-04-01T15:37:06.559Z,0.75
2019-04-01T15:39:32.721Z,0.70
2019-04-01T15:41:58.951Z,1.00
2019-04-01T15:44:25.114Z,0.80
2019-04-01T15:46:51.278Z,0.88
2019-04-01T15:49:17.448Z,0.70
2019-04-01T15:51:43.611Z,0.70
2019-04-01T15:54:09.756Z,0.70
2019-04-01T15:56:35.916Z,0.70
2019-04-01T15:59:02.071Z,0.90
2019-04-01T16:01:28.238Z,0.90
2019-04-01T16:03:54.410Z,0.80
2019-04-01T16:06:20.565Z,0.62
2019-04-01T16:08:46.738Z,0.78
2019-04-01T16:11:12.937Z,0.93
2019-04-01T16:13:39.211Z,0.98
2019-04-01T16:16:07.053Z,0.88
2019-04-01T16:18:33.298Z,0.82
2019-04-01T16:20:59.546Z,1.12
2019-04-01T16:23:25.742Z,0.80
2019-04-01T16:25:51.898Z,0.95
2019-04-01T16:28:18.064Z,0.90
2019-04-01T16:30:44.234Z,0.70
2019-04-01T16:33:10.457Z,0.80
2019-04-01T16:35:36.607Z,0.80
2019-04-01T16:38:02.756Z,0.70
2019-04-01T16:40:28.910Z,0.80
2019-04-01T16:42:55.773Z,0.72
2019-04-01T16:45:22.113Z,0.70
2019-04-01T16:47:48.644Z,0.70
2019-04-01T16:50:14.918Z,0.85
2019-04-01T16:52:41.136Z,0.65
2019-04-01T16:55:07.297Z,0.95
2019-04-01T16:57:34.792Z,0.80
2019-04-01T17:00:01.080Z,0.80
2019-04-01T17:02:27.283Z,0.80
2019-04-01T17:04:53.453Z,0.90
2019-04-01T17:07:19.911Z,0.80
2019-04-01T17:09:46.297Z,0.72
2019-04-01T17:12:12.481Z,0.80
2019-04-01T17:14:38.641Z,0.93
2019-04-01T17:17:04.811Z,0.98
2019-04-01T17:19:30.970Z,0.68
2019-04-01T17:21:59.136Z,0.70
2019-04-01T17:24:25.299Z,0.80
2019-04-01T17:26:51.455Z,1.10
2019-04-01T17:29:17.611Z,0.72
2019-04-01T17:31:43.784Z,0.90
2019-04-01T17:34:09.934Z,0.95
2019-04-01T17:36:36.119Z,0.80
2019-04-01T17:39:02.281Z,1.00
2019-04-01T17:41:28.432Z,0.80
2019-04-01T17:43:54.587Z,1.05
2019-04-01T17:46:20.732Z,1.02
2019-04-01T17:48:46.895Z,0.93
2019-04-01T17:51:13.065Z,1.00
2019-04-01T17:53:39.207Z,0.80
2019-04-01T17:56:05.383Z,1.00
2019-04-01T17:58:31.534Z,1.00
2019-04-01T18:00:57.709Z,1.10
2019-04-01T18:03:23.912Z,0.95
2019-04-01T18:05:50.069Z,1.00
2019-04-01T18:08:16.228Z,0.90
2019-04-01T18:10:42.382Z,1.07
2019-04-01T18:13:08.551Z,0.85
2019-04-01T18:15:34.719Z,1.00
2019-04-01T18:18:00.871Z,0.90
2019-04-01T18:20:27.037Z,0.90
2019-04-01T18:22:53.228Z,1.40
2019-04-01T18:25:20.988Z,1.20
2019-04-01T18:27:47.412Z,1.22
2019-04-01T18:30:13.591Z,1.12
2019-04-01T18:32:39.814Z,1.22
2019-04-01T18:35:05.965Z,1.00
2019-04-01T18:37:32.135Z,1.40
2019-04-01T18:39:58.295Z,1.40
2019-04-01T18:42:26.705Z,2.02
2019-04-01T18:44:53.321Z,1.22
2019-04-01T18:47:21.145Z,1.80
2019-04-01T18:49:47.601Z,1.82
2019-04-01T18:52:13.872Z,1.77
2019-04-01T18:54:40.050Z,2.10
2019-04-01T18:57:06.210Z,1.90
2019-04-01T18:59:32.374Z,1.70
2019-04-01T19:01:58.534Z,2.55
2019-04-01T19:04:24.697Z,3.17
2019-04-01T19:06:50.856Z,1.98
2019-04-01T19:09:17.003Z,2.15
2019-04-01T19:11:43.603Z,2.47
2019-04-01T19:14:11.060Z,2.12
2019-04-01T19:16:37.437Z,2.30
2019-04-01T19:19:03.597Z,2.10
2019-04-01T19:21:29.813Z,2.85
2019-04-01T19:23:55.968Z,2.00
2019-04-01T19:26:22.131Z,2.00
2019-04-01T19:28:48.289Z,2.77
2019-04-01T19:31:14.439Z,2.30
2019-04-01T19:33:40.599Z,2.45
2019-04-01T19:36:06.765Z,2.50
2019-04-01T19:38:32.905Z,2.40
2019-04-01T19:40:59.987Z,2.52
2019-04-01T19:43:26.315Z,2.80
2019-04-01T19:45:52.476Z,2.83
2019-04-01T19:48:18.669Z,2.62
2019-04-01T19:50:44.829Z,2.90
2019-04-01T19:53:11.110Z,3.00
2019-04-01T19:55:37.256Z,3.70
2019-04-01T19:58:05.098Z,4.35
2019-04-01T20:00:31.744Z,4.62
2019-04-01T20:03:01.223Z,4.40
2019-04-01T20:05:27.385Z,4.05
2019-04-01T20:07:53.551Z,3.45
2019-04-01T20:10:19.838Z,4.47
2019-04-01T20:12:46.188Z,3.47
2019-04-01T20:15:12.583Z,3.72
2019-04-01T20:17:39.523Z,3.22
2019-04-01T20:20:05.797Z,3.17
2019-04-01T20:22:32.016Z,4.42
2019-04-01T20:24:58.284Z,3.35
2019-04-01T20:27:24.440Z,3.50
2019-04-01T20:29:50.729Z,3.10
2019-04-01T20:32:18.929Z,4.85
2019-04-01T20:34:56.422Z,3.85
2019-04-01T20:37:12.688Z,3.35
2019-04-01T20:39:39.021Z,4.10
2019-04-01T20:42:07.128Z,3.62
2019-04-01T20:44:33.080Z,4.17
2019-04-01T20:46:59.358Z,3.30
2019-04-01T20:49:25.537Z,3.58
2019-04-01T20:51:51.812Z,3.25
2019-04-01T20:54:17.964Z,3.30
2019-04-01T20:56:44.121Z,3.70
2019-04-01T20:59:10.720Z,3.60
2019-04-01T21:01:37.111Z,3.80
2019-04-01T21:04:03.287Z,4.25
2019-04-01T21:06:29.437Z,3.72
2019-04-01T21:08:55.591Z,3.55
2019-04-01T21:11:21.792Z,3.60
2019-04-01T21:13:47.965Z,3.10
2019-04-01T21:16:14.139Z,3.98
2019-04-01T21:18:40.284Z,3.77
2019-04-01T21:21:06.539Z,3.80
2019-04-01T21:23:32.695Z,3.83
2019-04-01T21:25:58.957Z,3.58
2019-04-01T21:28:25.525Z,3.65
2019-04-01T21:30:51.631Z,3.37
2019-04-01T21:33:17.829Z,3.15
2019-04-01T21:35:43.985Z,3.72
2019-04-01T21:38:10.156Z,3.50
2019-04-01T21:40:36.316Z,3.33
2019-04-01T21:43:03.339Z,3.60
2019-04-01T21:45:29.728Z,3.67
2019-04-01T21:47:56.752Z,2.87
2019-04-01T21:50:22.909Z,3.22
2019-04-01T21:52:49.123Z,3.22
2019-04-01T21:55:15.301Z,2.62
2019-04-01T21:57:41.436Z,3.45
2019-04-01T22:00:07.604Z,3.45
2019-04-01T22:02:36.061Z,3.17
2019-04-01T22:05:01.736Z,3.10
2019-04-01T22:07:27.905Z,3.25
2019-04-01T22:09:54.064Z,4.15
2019-04-01T22:12:20.320Z,4.00
2019-04-01T22:14:46.472Z,3.70
2019-04-01T22:17:12.631Z,3.10
2019-04-01T22:19:38.814Z,3.20
2019-04-01T22:22:05.010Z,3.47
2019-04-01T22:24:32.124Z,3.00
2019-04-01T22:26:59.124Z,3.70
2019-04-01T22:29:25.283Z,3.50
2019-04-01T22:31:51.486Z,3.05
2019-04-01T22:34:17.636Z,3.67
2019-04-01T22:36:43.793Z,3.35
2019-04-01T22:39:09.946Z,3.77
2019-04-01T22:41:36.175Z,3.67
2019-04-01T22:44:02.335Z,3.98
2019-04-01T22:46:28.494Z,3.10
2019-04-01T22:48:54.659Z,3.37
2019-04-01T22:51:20.912Z,3.47
2019-04-01T22:53:47.067Z,3.10
2019-04-01T22:56:13.226Z,3.15
2019-04-01T22:58:39.372Z,3.72
2019-04-01T23:01:05.662Z,3.55
2019-04-01T23:03:31.820Z,3.67
2019-04-01T23:05:57.984Z,3.22
2019-04-01T23:08:24.152Z,3.58
2019-04-01T23:10:50.307Z,3.30
2019-04-01T23:13:16.476Z,3.45
2019-04-01T23:15:43.181Z,3.58
2019-04-01T23:18:10.268Z,3.37
2019-04-01T23:20:36.432Z,3.83
2019-04-01T23:23:02.588Z,3.15
2019-04-01T23:25:28.751Z,3.00
2019-04-01T23:27:55.523Z,3.65
2019-04-01T23:30:22.157Z,3.25
2019-04-01T23:32:48.314Z,2.98
2019-04-01T23:35:14.473Z,3.67
2019-04-01T23:37:40.630Z,3.12
2019-04-01T23:40:06.788Z,3.17
2019-04-01T23:42:32.967Z,3.50
2019-04-01T23:44:59.115Z,3.25
2019-04-01T23:47:25.271Z,3.62
2019-04-01T23:49:51.437Z,3.40
2019-04-01T23:52:17.639Z,3.42
2019-04-01T23:54:43.797Z,3.60
2019-04-01T23:57:09.944Z,3.52
2019-04-01T23:59:36.094Z,3.50
